• Join FlightAware (Why Join?)
  • Login
  • US Flag 
12:36AM EDT


 

Airport Tracker/Info


-or-


 

Live Flight TrackerFlight Track Log ✈ OPT330 ✈ 27-Apr-2014 ✈ KMDD - KDAL

Flight Track Log - Related Links

Times and Time Zones

All times are in EDT time to prevent confusion due to time zone crossing. See the OPT330 flight status page for this flight to view local times or setup timezone preferences in your user account.

Time Position Orientation Groundspeed Altitude Reporting Facility
EDT Latitude Longitude Course Direction KTS MPH feet Rate Location/Type
07:55PM 32.0600 -102.1422 90° East 210 242 5,800  Level Fort Worth Center
07:56PM 32.0886 -102.0569 68° East 249 287 9,400 3,360 Climbing Fort Worth Center
07:57PM 32.0969 -101.9686 84° East 263 303 12,800 2,640 Climbing Fort Worth Center
07:58PM 32.1039 -101.8711 85° East 299 344 14,900 2,640 Climbing Fort Worth Center
07:59PM 32.1117 -101.7506 86° East 359 413 18,300 3,000 Climbing Fort Worth Center
08:00PM 32.1312 -101.7439 90° East  Level Estimated
08:00PM 32.1208 -101.6261 85° East 377 434 21,200  Level Fort Worth Center
08:01PM 32.1300 -101.4878 85° East 412 474 23,300 2,040 Climbing Fort Worth Center
08:02PM 32.1397 -101.3472 85° East 426 490 25,500 2,280 Climbing Fort Worth Center
08:03PM 32.1517 -101.1706 85° East 445 512 28,100 2,340 Climbing Fort Worth Center
08:04PM 32.1608 -101.0169 86° East 464 534 30,400 1,380 Climbing Fort Worth Center
08:05PM 32.1736 -100.8550 85° East 487 560 31,000 240 Climbing Fort Worth Center
08:06PM 32.1831 -100.6850 86° East 515 593 31,000  Level Fort Worth Center
08:07PM 32.1944 -100.5144 85° East 519 597 31,000  Level Fort Worth Center
08:08PM 32.2033 -100.3489 86° East 514 592 31,000  Level Fort Worth Center
08:09PM 32.2156 -100.1619 86° East 486 559 31,000  Level Fort Worth Center
08:10PM 32.2239 -100.0100 86° East 472 543 31,000  Level Fort Worth Center
08:12PM 32.2331 -99.8581 86° East 470 541 31,000  Level Fort Worth Center
08:13PM 32.2322 -99.7083 90° East 465 535 31,000  Level Fort Worth Center
08:14PM 32.2258 -99.5597 93° East 459 528 31,000  Level Fort Worth Center
08:15PM 32.2217 -99.4094 92° East 459 528 31,000  Level Fort Worth Center
08:16PM 32.2153 -99.2283 92° East 461 531 31,000  Level Fort Worth Center
08:17PM 32.2097 -99.0789 92° East 459 528 31,000 -60 Level Fort Worth Center
08:18PM 32.2025 -98.9297 93° East 459 528 30,900 -660 Descending Fort Worth Center
08:19PM 32.1969 -98.7794 92° East 458 527 29,700 -1,200 Descending Fort Worth Center
08:20PM 32.1900 -98.6236 93° East 470 541 28,500 -1,500 Descending Fort Worth Center
08:21PM 32.1844 -98.4383 92° East 473 544 26,600 -1,980 Descending Fort Worth Center
08:26PM 32.2415 -97.7812 46° Northeast 415 478 17,300 -1,980 Descending FlightAware ADS-B
08:26PM 32.2790 -97.7358 46° Northeast 402 463 16,200 -1,800 Descending FlightAware ADS-B
08:27PM 32.3461 -97.6553 45° Northeast 390 449 14,900 -2,160 Descending FlightAware ADS-B
08:27PM 32.3901 -97.6025 45° Northeast 382 440 13,500 -2,160 Descending FlightAware ADS-B
08:28PM 32.4376 -97.5456 46° Northeast 371 427 12,200 -1,440 Descending FlightAware ADS-B
08:29PM 32.4884 -97.4847 46° Northeast 341 392 11,500 -540 Descending FlightAware ADS-B
08:30PM 32.5345 -97.4293 46° Northeast 339 390 11,500  Level FlightAware ADS-B
08:31PM 32.6042 -97.3453 46° Northeast 349 402 11,500  Level FlightAware ADS-B
08:31PM 32.6476 -97.2928 46° Northeast 350 403 11,500  Level FlightAware ADS-B
08:32PM 32.6928 -97.2381 46° Northeast 302 348 11,500  Level FlightAware ADS-B
08:33PM 32.7255 -97.1986 44° Northeast 284 327 11,500  Level FlightAware ADS-B
08:33PM 32.7502 -97.1780 21° North 288 331 11,500  Level FlightAware ADS-B
08:33PM 32.7781 -97.1718 North 289 333 11,500 -480 Level FlightAware ADS-B
08:34PM 32.8032 -97.1740 356° North 296 341 11,200 -840 Descending FlightAware ADS-B
08:34PM 32.8278 -97.1755 357° North 288 331 10,900 -840 Descending FlightAware ADS-B (KAFW)
08:34PM 32.8358 -97.1755 North 287 330 10,800 -1,320 Descending FlightAware ADS-B (KAFW)
08:34PM 32.8626 -97.1686 20° North 285 328 10,300 -1,500 Descending FlightAware ADS-B (KAFW)
08:35PM 32.8852 -97.1527 38° Northeast 282 325 9,800 -2,280 Descending FlightAware ADS-B (KAFW)
08:35PM 32.8930 -97.1438 48° Northeast 279 321 9,400 -1,440 Descending FlightAware ADS-B
08:35PM 32.9036 -97.1272 56° Northeast 275 316 9,300 -1,200 Descending FlightAware ADS-B (KAFW)
08:35PM 32.9117 -97.1056 71° East 267 307 8,900 -1,740 Descending FlightAware ADS-B
08:36PM 32.9170 -97.0876 70° East 268 308 8,500 -2,400 Descending FlightAware ADS-B (KAFW)
08:36PM 32.9268 -97.0568 69° East 237 273 7,300 -3,180 Descending FlightAware ADS-B
08:36PM 32.9348 -97.0313 70° East 217 250 6,500 -2,520 Descending FlightAware ADS-B
08:37PM 32.9373 -97.0234 70° East 213 245 5,700 -2,580 Descending FlightAware ADS-B
08:37PM 32.9460 -96.9939 75° East 203 234 5,000 -1,560 Descending FlightAware ADS-B
08:37PM 32.9485 -96.9827 75° East 201 231 4,900 -1,440 Descending FlightAware ADS-B (KAFW)
08:37PM 32.9481 -96.9603 109° East 191 220 4,100 -2,580 Descending FlightAware ADS-B (KAFW)
08:38PM 32.9433 -96.9520 131° Southeast 187 215 3,700 -2,700 Descending FlightAware ADS-B (KAFW)
08:38PM 32.9167 -96.9167 131° Southeast 179 206 2,100 -1,560 Descending Dallas / Fort Worth TRACON
08:39PM 32.8833 -96.8833 140° Southeast 135 155 1,200 -720 Descending Dallas / Fort Worth TRACON
08:40PM 32.8583 -96.8586 140° Southeast 119 137 500 -600 Descending Fort Worth Center
08:42PM 32.8471 -96.8518 118° Southeast  Level Estimated
08:49PM 32.8471 -96.8518 North  Level Estimated
08:50PM 32.8471 -96.8518 118° Southeast  Level Estimated